Time;durP1;ratioP1;P1;durP2;ratioP2;P2;SDS_P1;SDS_P2;PMS_P1;PMS_P2;Temp;Humidity;BMP_temperature;BMP_pressure;BME280_temperature;BME280_humidity;BME280_pressure;Samples;Min_cycle;Max_cycle;Signal;HPM_P1;HPM_P2
2022/04/06 00:01:58;;;;;;;16.50;5.57;;;;;;;8.10;94.67;99581.09;6049663;28;20484;-70
2022/04/06 00:04:53;;;;;;;12.67;5.20;;;;;;;8.07;94.88;99576.13;6050102;28;20042;-70
2022/04/06 00:07:49;;;;;;;17.80;5.83;;;;;;;8.11;95.30;99575.63;6050290;28;20875;-72
2022/04/06 00:10:44;;;;;;;13.75;6.43;;;;;;;8.17;95.32;99569.72;6049319;28;20477;-71
2022/04/06 00:13:40;;;;;;;15.43;5.90;;;;;;;8.16;95.28;99560.13;6050334;28;20036;-70
2022/04/06 00:16:35;;;;;;;14.43;6.10;;;;;;;8.18;95.55;99563.44;6050229;28;20022;-70
2022/04/06 00:19:33;;;;;;;13.53;6.03;;;;;;;8.21;95.18;99562.28;6049816;28;20034;-70
2022/04/06 00:22:28;;;;;;;13.63;6.68;;;;;;;8.21;95.37;99562.28;6049290;28;20281;-70
2022/04/06 00:25:24;;;;;;;13.37;5.20;;;;;;;8.21;95.37;99563.13;6049631;28;20181;-71
2022/04/06 00:28:19;;;;;;;14.23;6.60;;;;;;;8.19;95.34;99557.19;6049967;28;20537;-70
2022/04/06 00:31:14;;;;;;;15.13;6.10;;;;;;;8.21;95.44;99557.00;6049238;28;20034;-70
2022/04/06 00:34:09;;;;;;;13.73;6.43;;;;;;;8.20;95.34;99568.56;6049724;28;20147;-70
2022/04/06 00:37:05;;;;;;;16.70;6.70;;;;;;;8.17;95.60;99561.81;6049792;28;20499;-71
2022/04/06 00:40:00;;;;;;;18.33;6.97;;;;;;;8.19;95.57;99559.81;6049080;28;20040;-70
2022/04/06 00:42:56;;;;;;;15.15;6.72;;;;;;;8.21;95.53;99560.47;6049674;28;20030;-69
2022/04/06 00:45:51;;;;;;;17.75;6.95;;;;;;;8.26;95.56;99566.09;6049676;28;20072;-73
2022/04/06 00:48:46;;;;;;;16.90;6.97;;;;;;;8.24;95.10;99561.97;6049570;28;20522;-70
2022/04/06 00:51:45;;;;;;;15.87;6.70;;;;;;;8.34;94.89;99568.81;6048995;28;20030;-71
2022/04/06 00:54:40;;;;;;;13.68;6.63;;;;;;;8.33;94.41;99572.47;6049283;28;20029;-70
2022/04/06 00:57:35;;;;;;;14.38;6.20;;;;;;;8.31;93.97;99568.31;6049634;28;20042;-71
2022/04/06 01:00:31;;;;;;;14.23;6.27;;;;;;;8.27;93.69;99573.09;6048745;28;20401;-72
2022/04/06 01:03:26;;;;;;;13.07;6.13;;;;;;;8.26;94.29;99568.75;6049299;28;20264;-72
2022/04/06 01:06:21;;;;;;;14.50;6.00;;;;;;;8.22;93.82;99558.66;6049470;28;20400;-72
2022/04/06 01:09:18;;;;;;;13.33;6.67;;;;;;;8.14;94.05;99556.00;6048001;28;20036;-71
2022/04/06 01:12:13;;;;;;;13.48;5.55;;;;;;;8.13;93.70;99544.59;6052225;28;20347;-73
2022/04/06 01:15:09;;;;;;;12.57;5.38;;;;;;;8.13;93.90;99552.53;6049238;28;20068;-69
2022/04/06 01:18:04;;;;;;;11.13;5.15;;;;;;;8.14;93.67;99556.00;6049441;28;20076;-71
2022/04/06 01:21:00;;;;;;;20.00;5.57;;;;;;;8.13;93.08;99564.91;6048586;28;20040;-72
2022/04/06 01:23:55;;;;;;;13.53;4.57;;;;;;;8.18;92.99;99567.91;6048967;28;20697;-72
2022/04/06 01:26:51;;;;;;;10.57;4.80;;;;;;;8.18;92.66;99567.91;6049123;28;20455;-72
2022/04/06 01:29:47;;;;;;;14.70;5.05;;;;;;;8.15;92.21;99558.47;6049068;28;20456;-73
2022/04/06 01:32:42;;;;;;;13.38;4.47;;;;;;;8.19;92.35;99565.09;6048448;28;20056;-73
2022/04/06 01:35:42;;;;;;;11.80;4.90;;;;;;;8.19;91.53;99561.63;6049660;28;20374;-71
2022/04/06 01:38:37;;;;;;;13.10;4.82;;;;;;;8.24;91.82;99568.09;6053356;28;20380;-71
2022/04/06 01:41:35;;;;;;;14.83;4.90;;;;;;;8.28;91.59;99566.00;6052761;28;20076;-73
2022/04/06 01:44:32;;;;;;;9.77;4.70;;;;;;;8.29;91.28;99560.53;6053213;28;20030;-71
2022/04/06 01:47:27;;;;;;;8.55;4.20;;;;;;;8.30;91.76;99562.22;6053450;28;20030;-73
2022/04/06 01:53:36;;;;;;;12.82;4.38;;;;;;;8.23;91.97;99563.81;6053322;28;20030;-71
2022/04/06 01:56:32;;;;;;;10.87;4.50;;;;;;;8.24;92.21;99559.34;6039627;28;20038;-70
2022/04/06 01:59:28;;;;;;;10.73;4.00;;;;;;;8.21;92.59;99549.91;6052864;28;20037;-70
2022/04/06 02:02:26;;;;;;;11.25;4.95;;;;;;;8.18;92.62;99547.59;6052340;28;20535;-70
2022/04/06 02:05:22;;;;;;;11.68;5.35;;;;;;;8.16;92.52;99551.38;6052625;28;20092;-71
2022/04/06 02:08:17;;;;;;;13.15;6.85;;;;;;;8.19;92.78;99545.78;6052997;28;20430;-72
2022/04/06 02:11:12;;;;;;;16.17;6.60;;;;;;;8.25;92.75;99555.72;6052237;28;20034;-72
2022/04/06 02:14:08;;;;;;;15.70;7.00;;;;;;;8.31;92.55;99547.19;6052451;28;20052;-73
2022/04/06 02:17:04;;;;;;;18.33;7.70;;;;;;;8.33;92.32;99551.31;6052526;28;20426;-72
2022/04/06 02:19:59;;;;;;;18.10;8.73;;;;;;;8.35;92.03;99540.59;6052155;28;20528;-70
2022/04/06 02:22:54;;;;;;;16.83;7.47;;;;;;;8.45;91.70;99549.22;6052040;28;20034;-70
2022/04/06 02:25:49;;;;;;;22.53;8.70;;;;;;;8.45;91.49;99548.38;6052348;28;20030;-70
2022/04/06 02:28:45;;;;;;;20.27;8.70;;;;;;;8.49;91.04;99544.44;6052167;28;20315;-70
2022/04/06 02:31:40;;;;;;;24.83;9.88;;;;;;;8.53;90.84;99540.47;6051499;28;20097;-70
2022/04/06 02:34:36;;;;;;;26.80;10.03;;;;;;;8.55;91.09;99536.69;6054874;28;20115;-70
2022/04/06 02:37:32;;;;;;;22.95;9.00;;;;;;;8.59;91.03;99537.19;6052095;28;20613;-71
2022/04/06 02:40:27;;;;;;;24.23;10.02;;;;;;;8.51;91.05;99537.16;6051367;28;20033;-70
2022/04/06 02:43:22;;;;;;;21.60;9.23;;;;;;;8.49;90.75;99536.50;6051870;28;20033;-72
2022/04/06 02:46:17;;;;;;;20.60;9.23;;;;;;;8.53;91.04;99535.19;6051670;28;20034;-72
2022/04/06 02:49:13;;;;;;;21.53;8.87;;;;;;;8.52;90.67;99525.59;6051613;28;20076;-71
2022/04/06 02:52:09;;;;;;;26.15;10.13;;;;;;;8.56;90.81;99521.66;6051371;28;20535;-71
2022/04/06 02:55:04;;;;;;;24.45;10.00;;;;;;;8.55;90.43;99523.47;6051628;28;20069;-73
2022/04/06 02:57:59;;;;;;;27.25;10.07;;;;;;;8.60;90.30;99517.69;6051427;28;20045;-70
2022/04/06 03:00:56;;;;;;;27.80;10.70;;;;;;;8.55;90.26;99512.06;6050935;28;20044;-73
2022/04/06 03:03:52;;;;;;;22.98;9.82;;;;;;;8.66;90.26;99517.06;6051396;28;20036;-72
2022/04/06 03:06:47;;;;;;;27.47;10.53;;;;;;;8.58;89.86;99511.75;6051506;28;20045;-70
2022/04/06 03:09:42;;;;;;;25.13;10.40;;;;;;;8.59;89.91;99511.56;6051381;28;20218;-69
2022/04/06 03:12:37;;;;;;;26.43;10.90;;;;;;;8.55;89.96;99514.72;6050658;28;20037;-73
2022/04/06 03:15:33;;;;;;;30.97;11.23;;;;;;;8.57;89.99;99504.81;6051386;28;20030;-69
2022/04/06 03:18:28;;;;;;;28.00;11.40;;;;;;;8.56;89.95;99511.09;6050994;28;20762;-72
2022/04/06 03:21:23;;;;;;;29.33;12.13;;;;;;;8.64;89.79;99508.47;6050659;28;20049;-71
2022/04/06 03:24:19;;;;;;;30.63;13.25;;;;;;;8.67;89.61;99497.56;6051027;28;20491;-72
2022/04/06 03:27:14;;;;;;;29.43;13.00;;;;;;;8.61;89.54;99500.88;6051147;28;20034;-73
2022/04/06 03:30:11;;;;;;;31.37;13.20;;;;;;;8.59;90.06;99501.00;6050473;28;20033;-71
2022/04/06 03:33:09;;;;;;;33.70;14.35;;;;;;;8.65;89.41;99502.19;6050669;28;20034;-72
2022/04/06 03:36:04;;;;;;;36.75;14.18;;;;;;;8.65;89.54;99495.09;6047247;28;20026;-70
2022/04/06 03:38:59;;;;;;;37.22;15.25;;;;;;;8.66;89.27;99487.97;6050644;28;20053;-72
2022/04/06 03:41:55;;;;;;;41.00;15.63;;;;;;;8.66;88.95;99490.63;6050213;28;20501;-73
2022/04/06 03:44:50;;;;;;;42.03;16.67;;;;;;;8.64;89.07;99484.69;6050407;28;20034;-71
2022/04/06 03:47:46;;;;;;;40.13;16.48;;;;;;;8.68;89.35;99483.34;6050473;28;20752;-69
2022/04/06 03:50:41;;;;;;;44.27;17.07;;;;;;;8.72;89.10;99484.69;6050017;28;20041;-70
2022/04/06 03:53:36;;;;;;;49.07;17.63;;;;;;;8.72;88.94;99482.06;6050316;28;20040;-72
2022/04/06 03:56:32;;;;;;;40.77;16.57;;;;;;;8.72;88.91;99484.69;6037006;28;20038;-71
2022/04/06 03:59:28;;;;;;;43.55;17.13;;;;;;;8.73;88.36;99483.69;6049641;28;20033;-70
2022/04/06 04:02:24;;;;;;;41.33;18.07;;;;;;;8.77;88.51;99485.03;6049353;28;20466;-69
2022/04/06 04:05:20;;;;;;;47.53;17.25;;;;;;;8.77;88.03;99485.03;6050361;28;20117;-70
2022/04/06 04:08:15;;;;;;;45.75;16.73;;;;;;;8.78;87.68;99486.66;6050083;28;20033;-74
2022/04/06 04:11:10;;;;;;;44.03;16.77;;;;;;;8.76;87.76;99481.53;6049381;28;20026;-69
2022/04/06 04:14:06;;;;;;;40.03;15.67;;;;;;;8.76;87.32;99486.00;6054314;28;20108;-72
2022/04/06 04:17:01;;;;;;;39.80;16.33;;;;;;;8.77;87.64;99485.03;6049893;28;20512;-71
2022/04/06 04:19:57;;;;;;;43.63;16.80;;;;;;;8.73;87.74;99481.03;6050104;28;20061;-68
2022/04/06 04:22:52;;;;;;;41.60;17.50;;;;;;;8.68;87.71;99478.06;6049131;28;20112;-71
2022/04/06 04:25:47;;;;;;;44.17;15.67;;;;;;;8.76;87.48;99488.66;6050118;28;20284;-72
2022/04/06 04:28:42;;;;;;;40.30;15.83;;;;;;;8.75;87.05;99484.38;6050009;28;20034;-69
2022/04/06 04:31:39;;;;;;;39.07;15.97;;;;;;;8.80;86.77;99484.69;6049018;28;20101;-71
2022/04/06 04:34:34;;;;;;;45.97;16.63;;;;;;;8.81;86.35;99487.16;6049890;28;20038;-71
2022/04/06 04:37:29;;;;;;;45.90;16.40;;;;;;;8.80;86.47;99480.25;6041006;28;20523;-72
2022/04/06 04:40:25;;;;;;;43.83;14.90;;;;;;;8.77;86.23;99480.56;6049001;28;20026;-71
2022/04/06 04:43:22;;;;;;;36.10;14.17;;;;;;;8.78;86.38;99487.50;6049708;28;20132;-71
2022/04/06 04:46:18;;;;;;;46.83;15.15;;;;;;;8.78;85.97;99491.94;6049447;28;20037;-72
2022/04/06 04:49:14;;;;;;;39.45;14.55;;;;;;;8.76;86.10;99489.47;6049721;28;20041;-73
2022/04/06 04:52:09;;;;;;;31.97;12.73;;;;;;;8.75;86.43;99479.09;6048867;28;20042;-70
2022/04/06 04:55:05;;;;;;;39.22;14.40;;;;;;;8.76;85.97;99492.13;6039798;28;20516;-70
2022/04/06 04:58:00;;;;;;;37.67;12.95;;;;;;;8.76;85.45;99486.00;6048895;28;20030;-71
2022/04/06 05:00:55;;;;;;;35.67;14.50;;;;;;;8.80;85.43;99487.34;6048475;28;20064;-70
2022/04/06 05:03:51;;;;;;;29.83;13.27;;;;;;;8.78;85.69;99482.19;6049436;28;20112;-72
2022/04/06 05:06:46;;;;;;;27.95;12.57;;;;;;;8.81;84.88;99481.88;6049388;28;20473;-72
2022/04/06 05:09:42;;;;;;;28.27;13.43;;;;;;;8.82;84.30;99482.72;6050296;28;20042;-70
2022/04/06 05:12:37;;;;;;;30.63;12.80;;;;;;;8.82;84.70;99485.34;6053449;28;20080;-71
2022/04/06 05:15:33;;;;;;;25.25;11.93;;;;;;;8.74;84.95;99488.81;6054168;28;20032;-70
2022/04/06 05:18:29;;;;;;;28.47;11.03;;;;;;;8.76;84.52;99486.00;6054005;28;20033;-73
2022/04/06 05:21:24;;;;;;;30.48;11.30;;;;;;;8.79;84.47;99496.25;6052983;28;20280;-71
2022/04/06 05:24:20;;;;;;;27.10;11.27;;;;;;;8.76;84.55;99494.75;6054066;28;20088;-70
2022/04/06 05:27:15;;;;;;;22.37;10.43;;;;;;;8.78;83.94;99487.50;6053693;28;20044;-71
2022/04/06 05:30:14;;;;;;;25.80;9.67;;;;;;;8.84;83.38;99499.22;6053281;28;20038;-70
2022/04/06 05:33:09;;;;;;;29.48;10.32;;;;;;;8.86;83.64;99491.94;6053705;28;20402;-71
2022/04/06 05:36:04;;;;;;;25.83;10.13;;;;;;;8.91;83.52;99500.22;6053546;28;20073;-72
2022/04/06 05:39:00;;;;;;;21.73;9.05;;;;;;;8.91;83.05;99497.59;6053576;28;20025;-71
2022/04/06 05:41:55;;;;;;;23.63;9.53;;;;;;;8.89;83.36;99494.25;6052684;28;20025;-71
2022/04/06 05:44:51;;;;;;;25.65;9.52;;;;;;;8.85;83.71;99504.34;6053512;28;20271;-72
2022/04/06 05:47:46;;;;;;;19.33;8.53;;;;;;;8.81;84.09;99502.19;6053349;28;20042;-71
2022/04/06 05:50:41;;;;;;;19.63;8.52;;;;;;;8.65;85.34;99510.09;6052455;28;20026;-71
2022/04/06 05:53:37;;;;;;;24.37;9.67;;;;;;;8.64;85.34;99505.81;6053452;28;20437;-73
2022/04/06 05:56:32;;;;;;;26.40;9.57;;;;;;;8.59;85.68;99502.84;6052916;28;20034;-72
2022/04/06 05:59:27;;;;;;;27.30;10.93;;;;;;;8.58;85.76;99506.47;6053345;28;20636;-73
2022/04/06 06:02:24;;;;;;;22.33;10.37;;;;;;;8.46;87.00;99507.75;6052375;28;20358;-72
2022/04/06 06:05:20;;;;;;;27.00;10.25;;;;;;;8.37;87.52;99499.81;6052842;28;20283;-71
2022/04/06 06:08:15;;;;;;;26.58;9.88;;;;;;;8.45;87.00;99500.84;6052915;28;20030;-72
2022/04/06 06:11:10;;;;;;;23.73;9.17;;;;;;;8.48;87.19;99506.59;6051975;28;20153;-73
2022/04/06 06:14:06;;;;;;;29.37;9.50;;;;;;;8.48;86.53;99501.31;6052894;28;20042;-72
2022/04/06 06:17:01;;;;;;;30.45;10.38;;;;;;;8.56;86.25;99505.81;6052608;28;20331;-71
2022/04/06 06:19:57;;;;;;;19.58;9.80;;;;;;;8.60;85.42;99494.75;6052466;28;20354;-71
2022/04/06 06:22:52;;;;;;;23.47;8.73;;;;;;;8.64;85.19;99495.25;6051081;28;20037;-71
2022/04/06 06:25:47;;;;;;;20.67;8.13;;;;;;;8.70;85.10;99494.56;6052220;28;20045;-73
2022/04/06 06:28:43;;;;;;;20.92;8.75;;;;;;;8.75;84.77;99492.28;6052617;28;20083;-70
2022/04/06 06:31:38;;;;;;;20.52;8.02;;;;;;;8.84;83.88;99491.28;6051628;28;20072;-70
2022/04/06 06:34:33;;;;;;;20.50;7.77;;;;;;;8.85;83.91;99490.31;6052234;28;20080;-70
2022/04/06 06:37:29;;;;;;;21.30;8.50;;;;;;;8.90;83.73;99486.19;6052484;28;20268;-72
2022/04/06 06:40:25;;;;;;;20.03;7.63;;;;;;;8.91;83.32;99492.31;6051277;28;20037;-73
2022/04/06 06:43:21;;;;;;;23.60;9.13;;;;;;;8.97;82.60;99497.72;6052005;28;20289;-73
2022/04/06 06:46:18;;;;;;;16.47;7.97;;;;;;;8.99;82.39;99494.94;6052113;28;20440;-72
2022/04/06 06:49:14;;;;;;;20.95;8.23;;;;;;;9.02;82.11;99497.25;6051839;28;20109;-70
2022/04/06 06:52:10;;;;;;;19.88;7.15;;;;;;;9.01;82.75;99490.31;6051459;28;20029;-72
2022/04/06 06:55:07;;;;;;;15.90;6.70;;;;;;;9.06;82.56;99492.44;6051167;28;20045;-69
2022/04/06 06:58:03;;;;;;;18.83;7.05;;;;;;;9.06;82.62;99493.28;6051684;28;20030;-69
2022/04/06 07:00:58;;;;;;;20.98;8.20;;;;;;;9.07;82.37;99492.28;6050829;28;20440;-72
2022/04/06 07:03:54;;;;;;;22.50;8.15;;;;;;;9.08;81.76;99493.94;6051826;28;20042;-71
2022/04/06 07:06:49;;;;;;;21.10;9.10;;;;;;;9.12;81.92;99489.97;6051605;28;20030;-71
2022/04/06 07:09:45;;;;;;;18.88;8.45;;;;;;;9.18;82.00;99483.19;6051039;28;20160;-72
2022/04/06 07:12:41;;;;;;;20.37;9.13;;;;;;;9.21;81.02;99482.84;6051923;28;20045;-72
2022/04/06 07:15:36;;;;;;;25.15;8.10;;;;;;;9.24;81.31;99483.31;6053897;28;20029;-72
2022/04/06 07:18:33;;;;;;;21.57;9.93;;;;;;;9.24;80.91;99488.63;6051333;28;20052;-71
2022/04/06 07:21:29;;;;;;;23.88;9.88;;;;;;;9.26;81.16;99483.16;6050653;28;20034;-70
2022/04/06 07:24:24;;;;;;;28.03;9.83;;;;;;;9.28;81.28;99481.19;6050609;28;20408;-70
2022/04/06 07:27:19;;;;;;;21.13;9.47;;;;;;;9.29;80.83;99486.31;6051152;28;20276;-72
2022/04/06 07:30:15;;;;;;;22.83;10.07;;;;;;;9.36;80.33;99483.81;6050312;28;20374;-70
2022/04/06 07:33:12;;;;;;;20.60;9.50;;;;;;;9.46;80.13;99477.34;6050148;28;20377;-74
2022/04/06 07:36:08;;;;;;;21.75;10.18;;;;;;;9.48;79.95;99471.88;6050705;28;20467;-72
2022/04/06 07:39:04;;;;;;;25.50;9.47;;;;;;;9.50;79.36;99472.53;6050711;28;20040;-71
2022/04/06 07:42:00;;;;;;;20.08;8.23;;;;;;;9.60;78.78;99467.88;6050091;28;20022;-70
2022/04/06 07:44:56;;;;;;;19.87;7.63;;;;;;;9.65;78.62;99472.66;6050626;28;20523;-72
2022/04/06 07:47:52;;;;;;;15.05;7.65;;;;;;;9.66;78.37;99472.47;6050881;28;20307;-70
2022/04/06 07:50:48;;;;;;;18.92;8.20;;;;;;;9.67;78.05;99468.03;6049806;28;20472;-72
2022/04/06 07:53:43;;;;;;;15.77;8.00;;;;;;;9.74;77.51;99464.50;6050439;28;20030;-72
2022/04/06 07:56:40;;;;;;;19.35;6.57;;;;;;;9.77;76.64;99464.19;6050433;28;20048;-71
2022/04/06 07:59:35;;;;;;;20.10;7.65;;;;;;;9.76;76.75;99466.97;6050355;28;20040;-70
2022/04/06 08:02:31;;;;;;;13.73;6.43;;;;;;;9.84;75.97;99465.13;6049769;28;20473;-71
2022/04/06 08:05:27;;;;;;;15.75;6.75;;;;;;;9.91;75.45;99475.88;6050155;28;20041;-72
2022/04/06 08:08:22;;;;;;;16.58;6.18;;;;;;;9.96;74.84;99465.56;6050268;28;20030;-72
2022/04/06 08:11:19;;;;;;;13.85;5.60;;;;;;;10.05;74.58;99462.72;6049764;28;20044;-72
2022/04/06 08:14:14;;;;;;;11.65;6.10;;;;;;;10.12;74.40;99474.31;6050226;28;20092;-70
2022/04/06 08:17:09;;;;;;;14.40;6.43;;;;;;;10.19;73.06;99466.50;6050282;28;20042;-71
2022/04/06 08:20:05;;;;;;;15.97;6.10;;;;;;;10.16;72.52;99475.59;6056578;28;20636;-72
2022/04/06 08:23:01;;;;;;;10.25;5.00;;;;;;;10.26;72.70;99471.91;6049132;28;20030;-71
2022/04/06 08:25:56;;;;;;;11.50;5.70;;;;;;;10.23;71.82;99481.03;6049396;28;20041;-70
2022/04/06 08:28:53;;;;;;;11.87;5.00;;;;;;;10.22;72.08;99474.06;6049104;28;20076;-71
2022/04/06 08:31:49;;;;;;;13.60;5.05;;;;;;;10.26;72.21;99475.38;6048569;28;20049;-70
2022/04/06 08:34:45;;;;;;;13.15;6.00;;;;;;;10.43;71.49;99466.34;6049334;28;20054;-69
2022/04/06 08:37:40;;;;;;;9.88;5.05;;;;;;;10.46;70.29;99465.16;6049511;28;20037;-71
2022/04/06 08:40:36;;;;;;;9.52;4.70;;;;;;;10.44;71.00;99478.59;6049131;28;20041;-71
2022/04/06 08:43:32;;;;;;;13.30;5.25;;;;;;;10.39;71.48;99473.00;6049191;28;20041;-71
2022/04/06 08:46:32;;;;;;;16.00;5.50;;;;;;;10.37;71.68;99460.91;6049047;28;20034;-71
2022/04/06 08:49:27;;;;;;;9.98;4.68;;;;;;;10.13;71.27;99472.50;6049473;28;20040;-71
2022/04/06 08:52:23;;;;;;;13.33;4.63;;;;;;;10.03;71.21;99471.81;6048907;28;20101;-71
2022/04/06 08:55:18;;;;;;;8.65;5.03;;;;;;;10.10;70.85;99463.03;6048363;28;20037;-72
2022/04/06 08:58:13;;;;;;;13.33;4.97;;;;;;;10.13;70.87;99457.44;6048243;28;20062;-71
2022/04/06 09:01:09;;;;;;;11.57;4.63;;;;;;;10.24;70.26;99450.91;6048775;28;20120;-71
2022/04/06 09:04:04;;;;;;;13.30;4.55;;;;;;;10.35;70.26;99455.81;6049412;28;20042;-72
2022/04/06 09:07:07;;;;;;;13.57;4.57;;;;;;;10.47;70.75;99461.50;6049646;28;20531;-70
2022/04/06 09:10:02;;;;;;;7.50;3.63;;;;;;;10.53;68.19;99452.84;6048880;28;20081;-71
2022/04/06 09:13:12;;;;;;;8.30;3.65;;;;;;;10.59;68.65;99454.81;6048976;28;20033;-71
2022/04/06 09:16:08;;;;;;;8.10;3.47;;;;;;;10.60;67.54;99462.56;6036110;28;20049;-72
2022/04/06 09:19:11;;;;;;;10.38;3.03;;;;;;;10.47;66.89;99461.50;6049161;28;20034;-71
2022/04/06 09:22:08;;;;;;;10.02;3.42;;;;;;;10.41;66.94;99460.38;6048813;28;20054;-71
2022/04/06 09:25:05;;;;;;;8.23;2.97;;;;;;;10.36;67.60;99460.09;6049305;28;20049;-71
2022/04/06 09:28:16;;;;;;;7.18;3.42;;;;;;;10.43;67.32;99445.16;6049303;28;20539;-70
2022/04/06 09:31:16;;;;;;;7.28;3.05;;;;;;;10.47;66.40;99450.91;6048535;28;20129;-71
2022/04/06 09:34:12;;;;;;;6.28;2.50;;;;;;;10.64;66.21;99458.56;6049461;28;20041;-70
2022/04/06 09:37:27;;;;;;;9.43;2.85;;;;;;;11.02;65.43;99440.84;6049189;28;20033;-71
2022/04/06 09:40:28;;;;;;;5.90;2.80;;;;;;;10.89;65.07;99445.13;6048422;28;20501;-71
2022/04/06 09:43:29;;;;;;;8.85;2.75;;;;;;;10.80;65.88;99454.13;6048026;28;20033;-69
2022/04/06 09:49:42;;;;;;;7.55;2.53;;;;;;;10.54;66.82;99455.34;6049060;28;20030;-70
2022/04/06 09:52:38;;;;;;;8.55;3.42;;;;;;;10.32;67.46;99447.38;6048206;28;20042;-71
2022/04/06 09:55:33;;;;;;;8.32;2.67;;;;;;;10.40;67.58;99450.81;6048720;28;20073;-73
2022/04/06 09:58:29;;;;;;;5.17;2.77;;;;;;;10.38;68.08;99458.06;6050916;28;20042;-72
2022/04/06 10:01:26;;;;;;;7.18;2.63;;;;;;;10.19;68.63;99455.91;6067754;28;20045;-71
2022/04/06 10:04:25;;;;;;;6.63;2.72;;;;;;;10.21;68.70;99443.31;6051586;28;20037;-71
2022/04/06 10:07:23;;;;;;;4.65;2.80;;;;;;;10.19;67.71;99449.78;6053208;28;20030;-72
2022/04/06 10:10:19;;;;;;;6.78;2.70;;;;;;;10.17;68.72;99452.59;6052073;28;20037;-71
2022/04/06 10:13:14;;;;;;;5.75;2.58;;;;;;;10.11;69.25;99450.59;6051564;28;20084;-72
2022/04/06 10:16:12;;;;;;;7.78;2.70;;;;;;;10.16;69.31;99454.41;6057466;28;20034;-71
2022/04/06 10:19:13;;;;;;;11.52;3.17;;;;;;;10.09;68.69;99460.53;6052616;28;20493;-70
2022/04/06 10:22:20;;;;;;;6.65;3.35;;;;;;;10.03;67.83;99443.53;6050632;28;20025;-71
2022/04/06 10:25:24;;;;;;;;;;;;;;;10.07;68.93;99449.31;6051777;28;20374;-72
2022/04/06 10:28:21;;;;;;;6.57;3.03;;;;;;;10.01;68.63;99456.13;6052443;28;19944;-70
2022/04/06 10:31:24;;;;;;;9.25;3.90;;;;;;;10.00;68.40;99448.34;6050614;28;20045;-70
2022/04/06 10:34:30;;;;;;;7.72;3.90;;;;;;;9.97;68.86;99446.06;6052641;28;20185;-70
2022/04/06 10:37:25;;;;;;;9.90;4.13;;;;;;;9.89;68.90;99454.03;6052296;28;20038;-71
2022/04/06 10:40:21;;;;;;;11.57;4.63;;;;;;;9.87;69.31;99453.38;6051355;28;20044;-71
2022/04/06 10:43:40;;;;;;;7.97;4.40;;;;;;;9.86;69.35;99467.63;6052096;28;20477;-70
2022/04/06 10:46:35;;;;;;;10.32;3.78;;;;;;;9.85;69.69;99447.44;6051879;28;20088;-72
2022/04/06 10:49:30;;;;;;;11.17;4.23;;;;;;;9.87;70.07;99453.38;6052100;28;20553;-71
2022/04/06 10:52:26;;;;;;;9.20;3.70;;;;;;;9.77;70.02;99456.22;6051151;28;20033;-71
2022/04/06 10:55:23;;;;;;;9.75;3.67;;;;;;;9.76;70.29;99451.94;6052005;28;20499;-70
2022/04/06 10:58:18;;;;;;;9.05;3.42;;;;;;;9.75;70.18;99454.75;6051815;28;20112;-69
2022/04/06 11:01:18;;;;;;;8.73;3.17;;;;;;;9.67;70.54;99446.84;6050880;28;20045;-70
2022/04/06 11:04:21;;;;;;;8.95;3.50;;;;;;;9.59;72.14;99447.72;6051378;28;20049;-70
2022/04/06 11:10:51;;;;;;;5.47;2.72;;;;;;;9.58;72.06;99440.75;6050867;28;20033;-70
2022/04/06 11:13:50;;;;;;;5.40;2.70;;;;;;;9.66;71.66;99456.59;6063553;28;20038;-70
2022/04/06 11:16:46;;;;;;;7.78;2.50;;;;;;;9.71;70.94;99432.25;6041067;28;20033;-69
2022/04/06 11:19:49;;;;;;;10.90;2.63;;;;;;;9.74;70.69;99437.22;6051462;28;20485;-71
2022/04/06 11:22:53;;;;;;;4.80;2.58;;;;;;;9.71;70.35;99426.97;6050790;28;20053;-71
2022/04/06 11:25:48;;;;;;;5.78;3.10;;;;;;;9.71;70.18;99429.59;6051007;28;20034;-70
2022/04/06 11:28:44;;;;;;;5.28;3.15;;;;;;;9.74;70.21;99423.97;6049908;28;20072;-71
2022/04/06 11:31:56;;;;;;;5.73;2.23;;;;;;;9.77;69.52;99428.94;6050478;28;20032;-69
2022/04/06 11:34:58;;;;;;;6.43;2.60;;;;;;;9.80;70.55;99428.59;6050886;28;20273;-69
2022/04/06 11:37:53;;;;;;;5.93;2.55;;;;;;;9.89;70.39;99417.78;6051046;28;20037;-72
2022/04/06 11:40:48;;;;;;;6.13;2.53;;;;;;;10.02;69.79;99406.63;6050016;28;20077;-70
2022/04/06 11:43:44;;;;;;;5.53;2.37;;;;;;;10.20;69.03;99409.84;6050927;28;20436;-71
2022/04/06 11:46:46;;;;;;;6.73;2.47;;;;;;;10.36;68.98;99406.25;6050588;28;20026;-71
2022/04/06 11:49:41;;;;;;;4.38;2.10;;;;;;;10.51;68.39;99415.94;6050806;28;20026;-70
2022/04/06 11:52:40;;;;;;;5.07;2.23;;;;;;;10.53;68.61;99408.63;6049492;28;20030;-71
2022/04/06 11:55:54;;;;;;;6.43;2.50;;;;;;;10.44;68.52;99400.91;6037337;28;20026;-70
2022/04/06 11:58:55;;;;;;;4.93;2.60;;;;;;;10.58;68.39;99411.56;6050685;28;20038;-71
2022/04/06 12:01:51;;;;;;;8.23;3.83;;;;;;;10.60;68.01;99396.28;6049647;28;20030;-70
2022/04/06 12:04:59;;;;;;;7.50;3.28;;;;;;;10.67;68.23;99399.91;6050458;28;20367;-71
2022/04/06 12:08:10;;;;;;;;;;;;;;;10.51;68.26;99394.72;6050291;28;20580;-68
2022/04/06 12:11:06;;;;;;;7.75;3.38;;;;;;;10.55;68.55;99380.09;6049698;28;19909;-71
2022/04/06 12:14:02;;;;;;;5.77;2.77;;;;;;;10.56;68.18;99397.66;6048924;28;20041;-70
2022/04/06 12:16:57;;;;;;;5.50;2.90;;;;;;;10.65;67.28;99388.63;6045352;28;20045;-69
2022/04/06 12:19:52;;;;;;;8.93;2.90;;;;;;;10.69;67.03;99383.78;6048104;28;20077;-70
2022/04/06 12:23:04;;;;;;;7.13;2.80;;;;;;;10.85;66.30;99369.56;6047809;28;20054;-70
2022/04/06 12:26:08;;;;;;;5.60;2.83;;;;;;;11.05;64.10;99373.34;6050002;28;20037;-70
2022/04/06 12:29:03;;;;;;;5.22;2.20;;;;;;;11.09;63.73;99361.34;6050195;28;20530;-69
2022/04/06 12:31:58;;;;;;;7.17;2.50;;;;;;;11.36;62.99;99350.91;6049415;28;20037;-71
2022/04/06 12:34:54;;;;;;;6.15;2.90;;;;;;;11.72;62.74;99356.28;6049729;28;20129;-69
2022/04/06 12:37:50;;;;;;;4.27;2.23;;;;;;;11.73;61.25;99346.50;6049739;28;20038;-70
2022/04/06 12:40:45;;;;;;;7.15;2.85;;;;;;;11.57;61.72;99352.81;6048993;28;20117;-70
2022/04/06 12:43:44;;;;;;;4.70;2.53;;;;;;;11.42;62.44;99338.72;6049896;28;20034;-69
2022/04/06 12:46:42;;;;;;;6.57;2.72;;;;;;;11.23;62.83;99344.59;6048544;28;20465;-70
2022/04/06 12:49:42;;;;;;;5.97;3.38;;;;;;;11.15;62.69;99360.63;6049511;28;20038;-71
2022/04/06 12:52:37;;;;;;;5.40;2.80;;;;;;;10.98;64.02;99359.16;6048701;28;20113;-69
2022/04/06 12:55:34;;;;;;;5.75;2.90;;;;;;;10.91;64.38;99352.94;6036080;28;20044;-69
2022/04/06 12:58:29;;;;;;;5.82;2.70;;;;;;;10.93;65.19;99358.88;6049813;28;20778;-71
2022/04/06 13:01:24;;;;;;;8.90;3.20;;;;;;;10.95;64.74;99343.63;6048817;28;20038;-71
2022/04/06 13:04:20;;;;;;;6.77;3.40;;;;;;;11.05;65.24;99346.81;6047895;28;20069;-72
2022/04/06 13:07:15;;;;;;;5.33;2.67;;;;;;;10.95;63.61;99336.47;6049641;28;20108;-71
2022/04/06 13:10:12;;;;;;;5.45;2.80;;;;;;;10.86;64.45;99350.81;6048221;28;20272;-70
2022/04/06 13:13:08;;;;;;;5.65;2.60;;;;;;;10.92;64.52;99352.75;6049530;28;20048;-70
2022/04/06 13:16:03;;;;;;;4.50;2.57;;;;;;;10.74;64.02;99347.78;6054262;28;20038;-70
2022/04/06 13:19:00;;;;;;;6.45;2.80;;;;;;;10.72;64.88;99341.84;6049128;28;20037;-70
2022/04/06 13:21:55;;;;;;;4.78;2.53;;;;;;;10.77;64.83;99341.28;6048703;28;20049;-71
2022/04/06 13:24:51;;;;;;;9.45;3.05;;;;;;;10.88;64.86;99329.41;6049210;28;20444;-71
2022/04/06 13:27:47;;;;;;;7.63;2.80;;;;;;;10.82;64.84;99338.91;6049467;28;20041;-70
2022/04/06 13:30:42;;;;;;;5.88;2.83;;;;;;;10.72;65.17;99330.41;6047101;28;20087;-70
2022/04/06 13:33:38;;;;;;;6.65;3.08;;;;;;;10.65;65.68;99332.94;6063405;28;20038;-71
2022/04/06 13:36:33;;;;;;;5.87;2.60;;;;;;;10.58;65.49;99321.44;6050895;28;20080;-70
2022/04/06 13:39:28;;;;;;;7.47;2.88;;;;;;;10.58;65.78;99328.56;6050603;28;20038;-68
2022/04/06 13:42:24;;;;;;;7.00;3.00;;;;;;;10.57;65.48;99311.81;6049531;28;20046;-70
2022/04/06 13:45:19;;;;;;;6.50;2.78;;;;;;;10.53;65.72;99307.91;6050479;28;20060;-69
2022/04/06 13:48:15;;;;;;;7.13;3.27;;;;;;;10.58;65.54;99310.84;6050753;28;20034;-70
2022/04/06 13:51:11;;;;;;;6.75;3.28;;;;;;;10.62;65.19;99300.69;6048716;28;20497;-70
2022/04/06 13:54:06;;;;;;;6.72;3.05;;;;;;;10.63;66.05;99300.50;6049942;28;20034;-70
2022/04/06 13:57:02;;;;;;;7.90;2.90;;;;;;;10.57;65.66;99297.78;6049036;28;20493;-69
2022/04/06 13:59:57;;;;;;;6.72;3.25;;;;;;;10.67;65.58;99300.97;6049870;28;20038;-70